createdAt,value
2022-08-26T00:02:45.573Z,1.67
2022-08-26T00:05:48.090Z,2.05
2022-08-26T00:08:50.169Z,2.10
2022-08-26T00:11:53.860Z,1.92
2022-08-26T00:14:55.519Z,1.90
2022-08-26T00:17:57.409Z,2.03
2022-08-26T00:20:59.012Z,2.17
2022-08-26T00:24:00.483Z,2.45
2022-08-26T00:27:04.934Z,2.30
2022-08-26T00:30:12.016Z,2.42
2022-08-26T00:33:14.610Z,2.00
2022-08-26T00:36:20.447Z,2.63
2022-08-26T00:39:22.101Z,2.90
2022-08-26T00:42:24.197Z,2.80
2022-08-26T00:45:32.958Z,2.50
2022-08-26T00:48:37.670Z,2.05
2022-08-26T00:51:55.157Z,1.63
2022-08-26T00:55:09.398Z,1.63
2022-08-26T00:58:11.154Z,1.60
2022-08-26T01:01:12.818Z,2.30
2022-08-26T01:04:19.183Z,2.45
2022-08-26T01:07:21.653Z,2.30
2022-08-26T01:10:29.657Z,2.23
2022-08-26T01:13:32.344Z,1.60
2022-08-26T01:16:35.485Z,1.92
2022-08-26T01:19:43.459Z,1.80
2022-08-26T01:22:58.673Z,2.42
2022-08-26T01:26:19.621Z,2.72
2022-08-26T01:29:21.845Z,2.53
2022-08-26T01:32:25.717Z,2.05
2022-08-26T01:35:29.303Z,2.67
2022-08-26T01:38:31.612Z,2.10
2022-08-26T01:41:34.990Z,2.92
2022-08-26T01:44:42.446Z,2.40
2022-08-26T01:47:47.480Z,2.17
2022-08-26T01:50:51.604Z,1.65
2022-08-26T01:53:53.792Z,1.80
2022-08-26T01:56:56.991Z,2.50
2022-08-26T02:03:16.608Z,2.55
2022-08-26T02:06:19.684Z,2.60
2022-08-26T02:09:22.107Z,3.10
2022-08-26T02:12:25.805Z,2.15
2022-08-26T02:15:28.169Z,1.98
2022-08-26T02:18:30.960Z,1.90
2022-08-26T02:21:32.827Z,2.10
2022-08-26T02:24:58.962Z,1.92
2022-08-26T02:28:01.793Z,2.10
2022-08-26T02:31:04.868Z,1.95
2022-08-26T02:34:15.186Z,2.40
2022-08-26T02:37:17.740Z,2.42
2022-08-26T02:40:24.445Z,1.97
2022-08-26T02:43:32.686Z,2.92
2022-08-26T02:46:34.874Z,2.80
2022-08-26T02:49:40.069Z,3.05
2022-08-26T02:52:46.045Z,2.15
2022-08-26T02:55:49.421Z,2.00
2022-08-26T02:58:51.500Z,2.40
2022-08-26T03:05:02.019Z,2.20
2022-08-26T03:08:04.619Z,2.42
2022-08-26T03:11:06.156Z,2.17
2022-08-26T03:14:08.369Z,2.35
2022-08-26T03:17:09.848Z,2.50
2022-08-26T03:20:11.729Z,1.67
2022-08-26T03:23:15.208Z,2.30
2022-08-26T03:26:16.825Z,1.73
2022-08-26T03:29:36.782Z,2.40
2022-08-26T03:32:38.309Z,2.63
2022-08-26T03:35:45.022Z,2.63
2022-08-26T03:38:46.649Z,2.58
2022-08-26T03:41:48.193Z,2.25
2022-08-26T03:44:51.374Z,2.08
2022-08-26T03:47:53.216Z,2.00
2022-08-26T03:50:54.645Z,2.22
2022-08-26T03:53:57.494Z,2.20
2022-08-26T03:56:58.967Z,2.60
2022-08-26T04:00:00.461Z,2.30
2022-08-26T04:03:01.954Z,3.33
2022-08-26T04:06:04.069Z,2.85
2022-08-26T04:09:09.247Z,2.65
2022-08-26T04:12:11.088Z,1.88
2022-08-26T04:15:15.738Z,2.33
2022-08-26T04:18:17.297Z,2.00
2022-08-26T04:21:19.703Z,2.10
2022-08-26T04:24:24.491Z,2.33
2022-08-26T04:27:26.110Z,2.80
2022-08-26T04:30:28.158Z,2.97
2022-08-26T04:33:32.456Z,2.00
2022-08-26T04:36:34.795Z,2.17
2022-08-26T04:39:37.258Z,2.20
2022-08-26T04:42:38.744Z,1.92
2022-08-26T04:45:41.695Z,2.25
2022-08-26T04:48:43.431Z,1.67
2022-08-26T04:51:45.230Z,2.20
2022-08-26T04:54:46.739Z,2.65
2022-08-26T04:57:48.213Z,2.80
2022-08-26T05:00:51.473Z,2.92
2022-08-26T05:03:52.967Z,2.80
2022-08-26T05:06:57.901Z,1.95
2022-08-26T05:10:04.705Z,3.00
2022-08-26T05:13:16.192Z,3.30
2022-08-26T05:16:19.634Z,3.25
2022-08-26T05:19:21.702Z,2.40
2022-08-26T05:22:23.179Z,2.88
2022-08-26T05:25:24.694Z,3.00
2022-08-26T05:28:29.876Z,2.72
2022-08-26T05:31:33.116Z,3.05
2022-08-26T05:34:34.677Z,3.00
2022-08-26T05:37:38.129Z,2.13
2022-08-26T05:40:44.510Z,2.67
2022-08-26T05:43:46.173Z,2.53
2022-08-26T05:46:47.715Z,2.63
2022-08-26T05:49:51.546Z,2.88
2022-08-26T05:52:53.252Z,3.03
2022-08-26T05:55:56.569Z,2.83
2022-08-26T05:59:01.387Z,2.60
2022-08-26T06:02:02.916Z,2.95
2022-08-26T06:05:04.869Z,1.88
2022-08-26T06:08:13.851Z,2.70
2022-08-26T06:11:18.857Z,3.20
2022-08-26T06:14:20.357Z,3.30
2022-08-26T06:17:21.802Z,3.28
2022-08-26T06:20:24.951Z,2.83
2022-08-26T06:23:48.277Z,2.80
2022-08-26T06:26:52.990Z,2.60
2022-08-26T06:29:54.694Z,2.42
2022-08-26T06:32:56.197Z,1.90
2022-08-26T06:35:58.347Z,3.38
2022-08-26T06:39:04.855Z,2.58
2022-08-26T06:42:07.165Z,2.08
2022-08-26T06:45:09.118Z,2.90
2022-08-26T06:48:10.730Z,2.83
2022-08-26T06:51:14.957Z,3.20
2022-08-26T06:54:16.377Z,3.50
2022-08-26T06:57:17.831Z,3.40
2022-08-26T07:00:20.621Z,3.65
2022-08-26T07:03:22.306Z,3.00
2022-08-26T07:06:24.623Z,3.20
2022-08-26T07:09:29.499Z,3.25
2022-08-26T07:12:30.991Z,2.78
2022-08-26T07:15:33.591Z,2.58
2022-08-26T07:18:36.967Z,3.47
2022-08-26T07:21:44.031Z,3.38
2022-08-26T07:25:26.261Z,3.85
2022-08-26T07:28:28.293Z,2.83
2022-08-26T07:31:37.378Z,2.78
2022-08-26T07:34:42.028Z,3.22
2022-08-26T07:37:43.509Z,3.22
2022-08-26T07:40:44.977Z,3.63
2022-08-26T07:43:46.785Z,2.85
2022-08-26T07:46:52.314Z,3.63
2022-08-26T07:49:56.483Z,3.33
2022-08-26T07:52:58.055Z,3.65
2022-08-26T07:55:59.569Z,3.65
2022-08-26T07:59:01.265Z,3.17
2022-08-26T08:02:04.254Z,3.47
2022-08-26T08:05:06.580Z,3.72
2022-08-26T08:08:27.049Z,3.97
2022-08-26T08:11:31.122Z,3.72
2022-08-26T08:14:34.466Z,3.97
2022-08-26T08:20:37.337Z,2.63
2022-08-26T08:23:39.645Z,3.30
2022-08-26T08:26:41.611Z,3.80
2022-08-26T08:29:43.094Z,3.10
2022-08-26T08:32:45.390Z,3.92
2022-08-26T08:35:48.291Z,3.30
2022-08-26T08:42:20.193Z,3.75
2022-08-26T08:45:36.646Z,2.85
2022-08-26T08:48:46.731Z,3.95
2022-08-26T08:52:07.473Z,4.05
2022-08-26T08:55:10.339Z,3.92
2022-08-26T08:58:19.126Z,4.05
2022-08-26T09:01:43.151Z,4.38
2022-08-26T09:05:15.410Z,4.07
2022-08-26T09:08:23.142Z,3.88
2022-08-26T09:11:24.837Z,4.10
2022-08-26T09:14:27.885Z,4.03
2022-08-26T09:17:48.042Z,3.83
2022-08-26T09:20:58.258Z,3.85
2022-08-26T09:24:00.091Z,3.83
2022-08-26T09:27:01.612Z,3.58
2022-08-26T09:30:04.665Z,3.85
2022-08-26T09:33:10.482Z,4.10
2022-08-26T09:36:18.567Z,3.58
2022-08-26T09:39:39.210Z,3.15
2022-08-26T09:42:40.719Z,4.13
2022-08-26T09:45:50.794Z,4.20
2022-08-26T09:48:54.475Z,2.67
2022-08-26T09:52:03.717Z,3.30
2022-08-26T09:55:21.902Z,3.50
2022-08-26T09:58:34.388Z,3.17
2022-08-26T10:01:43.363Z,2.80
2022-08-26T10:04:52.024Z,2.67
2022-08-26T10:07:54.206Z,3.85
2022-08-26T10:10:59.435Z,3.15
2022-08-26T10:14:07.750Z,3.90
2022-08-26T10:17:13.491Z,3.72
2022-08-26T10:20:23.346Z,3.80
2022-08-26T10:23:31.009Z,4.75
2022-08-26T10:27:05.750Z,4.25
2022-08-26T10:30:14.735Z,3.03
2022-08-26T10:33:18.383Z,3.80
2022-08-26T10:37:05.197Z,4.05
2022-08-26T10:40:07.481Z,4.13
2022-08-26T10:43:17.358Z,4.40
2022-08-26T10:46:27.084Z,3.85
2022-08-26T10:49:29.470Z,4.00
2022-08-26T10:53:03.844Z,5.28
2022-08-26T10:56:24.358Z,4.90
2022-08-26T10:59:55.270Z,3.92
2022-08-26T11:03:06.377Z,3.85
2022-08-26T11:06:27.828Z,3.80
2022-08-26T11:09:49.086Z,3.30
2022-08-26T11:12:51.477Z,3.80
2022-08-26T11:15:58.554Z,4.13
2022-08-26T11:19:03.866Z,4.45
2022-08-26T11:22:28.056Z,4.32
2022-08-26T11:25:30.945Z,4.10
2022-08-26T11:31:40.258Z,3.00
2022-08-26T11:35:04.663Z,3.45
2022-08-26T11:38:23.387Z,3.55
2022-08-26T11:41:29.200Z,4.72
2022-08-26T11:44:41.304Z,4.03
2022-08-26T11:47:51.005Z,4.50
2022-08-26T11:51:11.006Z,4.72
2022-08-26T11:54:16.417Z,4.13
2022-08-26T11:57:17.930Z,3.58
2022-08-26T12:00:26.908Z,3.60
2022-08-26T12:03:36.816Z,3.72
2022-08-26T12:06:45.843Z,3.70
2022-08-26T12:09:54.483Z,3.97
2022-08-26T12:12:59.670Z,3.45
2022-08-26T12:16:01.297Z,3.40
2022-08-26T12:19:26.326Z,5.40
2022-08-26T12:22:34.495Z,4.53
2022-08-26T12:25:36.463Z,3.95
2022-08-26T12:28:47.618Z,4.40
2022-08-26T12:31:49.708Z,4.72
2022-08-26T12:34:51.441Z,5.00
2022-08-26T12:37:54.198Z,4.82
2022-08-26T12:40:56.904Z,5.22
2022-08-26T12:43:58.371Z,4.07
2022-08-26T12:47:10.429Z,4.75
2022-08-26T12:50:27.856Z,5.05
2022-08-26T12:53:32.184Z,4.00
2022-08-26T12:56:39.417Z,3.63
2022-08-26T12:59:41.172Z,3.90
2022-08-26T13:02:42.627Z,4.00
2022-08-26T13:05:44.295Z,3.72
2022-08-26T13:09:11.848Z,3.95
2022-08-26T13:12:33.063Z,3.75
2022-08-26T13:15:34.636Z,4.38
2022-08-26T13:18:37.197Z,4.30
2022-08-26T13:21:47.737Z,4.35
2022-08-26T13:24:49.218Z,5.13
2022-08-26T13:27:50.769Z,3.63
2022-08-26T13:30:52.910Z,4.25
2022-08-26T13:33:54.366Z,4.30
2022-08-26T13:36:56.877Z,3.88
2022-08-26T13:39:58.963Z,3.77
2022-08-26T13:43:00.467Z,3.03
2022-08-26T13:46:01.983Z,3.83
2022-08-26T13:49:03.837Z,4.18
2022-08-26T13:52:05.375Z,5.00
2022-08-26T13:55:07.813Z,4.60
2022-08-26T13:58:10.922Z,4.75
2022-08-26T14:04:14.461Z,4.05
2022-08-26T14:07:16.027Z,4.15
2022-08-26T14:10:17.522Z,3.38
2022-08-26T14:13:19.035Z,3.88
2022-08-26T14:16:33.366Z,3.88
2022-08-26T14:19:35.369Z,4.25
2022-08-26T14:23:03.659Z,5.57
2022-08-26T14:26:08.182Z,5.15
2022-08-26T14:29:12.379Z,3.50
2022-08-26T14:32:25.899Z,3.60
2022-08-26T14:35:30.246Z,4.00
2022-08-26T14:38:31.669Z,4.15
2022-08-26T14:41:35.306Z,3.53
2022-08-26T14:44:37.121Z,3.65
2022-08-26T14:47:39.005Z,3.35
2022-08-26T14:50:43.997Z,2.70
2022-08-26T14:54:03.868Z,3.15
2022-08-26T14:57:10.903Z,2.50
2022-08-26T15:00:13.836Z,2.95
2022-08-26T15:06:21.891Z,2.92
2022-08-26T15:09:25.310Z,3.33
2022-08-26T15:12:27.719Z,3.30
2022-08-26T15:15:30.542Z,2.53
2022-08-26T15:18:32.011Z,3.42
2022-08-26T15:21:34.485Z,2.90
2022-08-26T15:24:36.441Z,3.00
2022-08-26T15:27:38.193Z,2.80
2022-08-26T15:30:39.694Z,2.40
2022-08-26T15:33:41.539Z,3.22
2022-08-26T15:36:45.731Z,3.10
2022-08-26T15:39:47.769Z,2.95
2022-08-26T15:42:54.351Z,2.95
2022-08-26T15:46:03.092Z,3.90
2022-08-26T15:49:04.605Z,3.45
2022-08-26T15:52:07.478Z,3.63
2022-08-26T15:55:09.389Z,3.58
2022-08-26T15:58:10.924Z,3.42
2022-08-26T16:01:12.442Z,3.20
2022-08-26T16:04:14.094Z,3.53
2022-08-26T16:07:15.604Z,2.55
2022-08-26T16:10:18.532Z,3.30
2022-08-26T16:13:20.296Z,3.35
2022-08-26T16:16:21.896Z,3.55
2022-08-26T16:19:23.434Z,3.40
2022-08-26T16:22:27.120Z,3.90
2022-08-26T16:25:30.735Z,3.38
2022-08-26T16:28:32.236Z,3.78
2022-08-26T16:31:33.938Z,3.50
2022-08-26T16:34:36.082Z,6.90
2022-08-26T16:37:39.361Z,3.55
2022-08-26T16:40:41.213Z,3.75
2022-08-26T16:43:42.710Z,3.38
2022-08-26T16:46:45.467Z,4.30
2022-08-26T16:49:47.443Z,4.18
2022-08-26T16:52:55.741Z,3.50
2022-08-26T16:55:57.367Z,3.10
2022-08-26T16:58:59.310Z,3.17
2022-08-26T17:02:01.751Z,3.10
2022-08-26T17:05:03.618Z,3.87
2022-08-26T17:08:05.801Z,3.72
2022-08-26T17:11:08.306Z,4.00
2022-08-26T17:14:10.234Z,3.97
2022-08-26T17:17:11.835Z,3.50
2022-08-26T17:20:16.926Z,3.60
2022-08-26T17:23:19.715Z,3.65
2022-08-26T17:26:21.213Z,3.50
2022-08-26T17:29:22.727Z,3.10
2022-08-26T17:32:24.204Z,2.83
2022-08-26T17:35:26.207Z,2.95
2022-08-26T17:38:28.993Z,3.00
2022-08-26T17:41:30.565Z,3.05
2022-08-26T17:44:32.065Z,2.30
2022-08-26T17:47:33.916Z,2.10
2022-08-26T17:50:35.553Z,2.10
2022-08-26T17:53:38.482Z,1.27
2022-08-26T17:56:40.020Z,1.80
2022-08-26T17:59:43.082Z,1.85
2022-08-26T18:02:45.365Z,1.50
2022-08-26T18:05:49.347Z,1.58
2022-08-26T18:08:51.318Z,1.55
2022-08-26T18:11:55.122Z,1.85
2022-08-26T18:14:56.581Z,1.52
2022-08-26T18:17:58.411Z,1.55
2022-08-26T18:21:01.825Z,1.58
2022-08-26T18:24:04.032Z,1.30
2022-08-26T18:27:05.584Z,1.23
2022-08-26T18:30:16.597Z,0.85
2022-08-26T18:33:21.316Z,1.00
2022-08-26T18:36:27.073Z,0.85
2022-08-26T18:39:28.560Z,0.82
2022-08-26T18:42:30.052Z,0.98
2022-08-26T18:45:31.511Z,1.17
2022-08-26T18:48:34.185Z,1.10
2022-08-26T18:51:36.651Z,0.73
2022-08-26T18:54:38.135Z,1.40
2022-08-26T18:57:39.690Z,1.77
2022-08-26T19:00:41.198Z,2.10
2022-08-26T19:03:43.224Z,1.98
2022-08-26T19:06:47.965Z,1.63
2022-08-26T19:09:49.667Z,1.50
2022-08-26T19:13:00.135Z,2.50
2022-08-26T19:16:02.370Z,2.00
2022-08-26T19:19:04.278Z,1.60
2022-08-26T19:22:06.319Z,1.65
2022-08-26T19:25:10.055Z,1.50
2022-08-26T19:28:16.822Z,2.23
2022-08-26T19:31:18.939Z,1.80
2022-08-26T19:34:21.066Z,1.70
2022-08-26T19:37:23.959Z,2.13
2022-08-26T19:40:25.621Z,1.98
2022-08-26T19:43:27.307Z,1.60
2022-08-26T19:46:33.256Z,2.10
2022-08-26T19:49:36.072Z,1.58
2022-08-26T19:52:39.606Z,1.60
2022-08-26T19:55:42.368Z,1.10
2022-08-26T19:58:44.973Z,1.55
2022-08-26T20:01:47.146Z,1.30
2022-08-26T20:05:04.943Z,1.83
2022-08-26T20:08:06.684Z,1.65
2022-08-26T20:11:12.204Z,1.60
2022-08-26T20:14:18.212Z,1.77
2022-08-26T20:17:22.338Z,2.13
2022-08-26T20:20:42.671Z,1.60
2022-08-26T20:23:44.349Z,2.17
2022-08-26T20:26:46.062Z,2.10
2022-08-26T20:29:47.856Z,2.50
2022-08-26T20:32:49.481Z,2.35
2022-08-26T20:35:51.343Z,1.60
2022-08-26T20:38:54.780Z,2.00
2022-08-26T20:44:58.577Z,2.17
2022-08-26T20:48:00.409Z,1.40
2022-08-26T20:51:02.005Z,1.63
2022-08-26T20:54:05.133Z,1.60
2022-08-26T20:57:06.806Z,2.13
2022-08-26T21:00:09.554Z,1.90
2022-08-26T21:03:11.180Z,1.63
2022-08-26T21:06:12.891Z,2.30
2022-08-26T21:09:18.250Z,1.45
2022-08-26T21:12:19.744Z,2.30
2022-08-26T21:15:22.123Z,2.92
2022-08-26T21:18:24.479Z,2.65
2022-08-26T21:21:27.521Z,2.35
2022-08-26T21:24:29.333Z,1.83
2022-08-26T21:27:30.990Z,1.52
2022-08-26T21:30:34.588Z,2.30
2022-08-26T21:33:36.585Z,1.70
2022-08-26T21:36:38.099Z,2.28
2022-08-26T21:39:39.577Z,1.95
2022-08-26T21:42:41.386Z,1.90
2022-08-26T21:45:42.942Z,1.98
2022-08-26T21:48:50.767Z,2.40
2022-08-26T21:51:52.505Z,2.10
2022-08-26T21:54:59.700Z,1.90
2022-08-26T21:58:02.116Z,1.58
2022-08-26T22:01:07.539Z,2.30
2022-08-26T22:04:10.298Z,2.00
2022-08-26T22:07:11.976Z,2.15
2022-08-26T22:10:13.705Z,1.42
2022-08-26T22:13:15.755Z,1.40
2022-08-26T22:16:18.185Z,1.70
2022-08-26T22:19:20.825Z,2.07
2022-08-26T22:22:26.000Z,2.00
2022-08-26T22:25:27.559Z,2.40
2022-08-26T22:28:29.196Z,2.20
2022-08-26T22:31:38.021Z,2.33
2022-08-26T22:34:41.784Z,2.10
2022-08-26T22:37:43.645Z,4.03
2022-08-26T22:40:48.422Z,2.75
2022-08-26T22:43:49.919Z,1.95
2022-08-26T22:46:54.156Z,2.35
2022-08-26T22:49:57.557Z,2.67
2022-08-26T22:56:00.868Z,1.90
2022-08-26T22:59:06.683Z,2.25
2022-08-26T23:02:08.243Z,2.25
2022-08-26T23:05:13.609Z,2.30
2022-08-26T23:08:16.395Z,1.95
2022-08-26T23:11:18.989Z,1.90
2022-08-26T23:14:20.709Z,2.23
2022-08-26T23:17:22.225Z,2.35
2022-08-26T23:20:23.910Z,2.33
2022-08-26T23:23:28.135Z,2.17
2022-08-26T23:26:29.584Z,2.08
2022-08-26T23:29:31.696Z,1.40
2022-08-26T23:32:33.191Z,2.03
2022-08-26T23:35:34.690Z,2.30
2022-08-26T23:38:36.368Z,1.77
2022-08-26T23:41:42.637Z,2.20
2022-08-26T23:44:44.204Z,1.90
2022-08-26T23:47:47.336Z,2.33
2022-08-26T23:51:07.623Z,1.60
2022-08-26T23:54:09.254Z,2.10
2022-08-26T23:57:11.120Z,2.35
